createdAt,value
2023-02-17T00:10:24.132Z,39.9
2023-02-17T00:25:25.870Z,40
2023-02-17T00:40:25.971Z,39.1
2023-02-17T00:55:21.395Z,40
2023-02-17T01:10:24.071Z,39.6
2023-02-17T01:25:25.640Z,40.1
2023-02-17T01:40:26.627Z,40.3
2023-02-17T01:55:31.166Z,39.5
2023-02-17T02:10:33.859Z,40
2023-02-17T02:25:34.740Z,39.8
2023-02-17T02:40:35.224Z,39.7
2023-02-17T02:55:41.068Z,39.5
2023-02-17T03:10:42.795Z,40
2023-02-17T03:25:43.824Z,40
2023-02-17T03:40:45.741Z,40.1
2023-02-17T03:55:51.384Z,40
2023-02-17T04:56:06.509Z,40.3
2023-02-17T04:56:13.449Z,39.6
2023-02-17T05:11:15.407Z,40.1
2023-02-17T05:26:16.553Z,40.3
2023-02-17T05:41:17.408Z,39.5
2023-02-17T05:56:18.088Z,39.8
2023-02-17T05:56:33.543Z,40.2
2023-02-17T06:11:36.009Z,40.3
2023-02-17T06:26:36.985Z,39.5
2023-02-17T06:41:37.894Z,40
2023-02-17T06:56:21.804Z,40.1
2023-02-17T07:11:23.000Z,39.9
2023-02-17T07:26:24.684Z,39.9
2023-02-17T07:41:24.996Z,39.9
2023-02-17T08:56:42.262Z,39.9
2023-02-17T09:11:44.326Z,40
2023-02-17T09:26:45.722Z,39.8
2023-02-17T09:41:46.441Z,40
2023-02-17T10:13:02.638Z,40
2023-02-17T10:28:04.290Z,40.5
2023-02-17T10:43:08.287Z,40.8
2023-02-17T10:56:56.358Z,40.9
2023-02-17T10:57:02.416Z,40.7
2023-02-17T11:12:04.971Z,40.6
2023-02-17T11:27:05.368Z,41
2023-02-17T11:42:06.524Z,40.8
2023-02-17T11:57:24.907Z,41.2
2023-02-17T12:57:22.554Z,40.8
2023-02-17T13:12:25.608Z,41.5
2023-02-17T13:27:26.716Z,41.6
2023-02-17T13:42:27.038Z,41.4
2023-02-17T13:57:28.023Z,41.4
2023-02-17T13:57:34.020Z,41
2023-02-17T14:12:36.483Z,41.5
2023-02-17T14:27:37.851Z,40.9
2023-02-17T14:57:42.982Z,41.2
2023-02-17T15:12:45.682Z,41.1
2023-02-17T15:28:01.477Z,41.4
2023-02-17T15:42:47.381Z,41.2
2023-02-17T15:58:05.886Z,40.4
2023-02-17T16:13:08.149Z,41
2023-02-17T16:28:09.521Z,40.6
2023-02-17T17:58:18.682Z,40.4
2023-02-17T17:58:24.725Z,40.2
2023-02-17T18:13:26.886Z,40.3
2023-02-17T18:28:27.654Z,40.7
2023-02-17T18:43:32.680Z,39.8
2023-02-17T18:58:23.881Z,39.9
2023-02-17T19:13:26.390Z,40.5
2023-02-17T19:28:27.210Z,40.2
2023-02-17T19:58:25.046Z,40.2
2023-02-17T19:58:33.058Z,40.2
2023-02-17T20:13:46.706Z,40.1
2023-02-17T20:28:36.328Z,40.1
2023-02-17T20:43:37.564Z,40.3
2023-02-17T20:58:42.986Z,40
2023-02-17T21:13:46.383Z,40.5
2023-02-17T21:28:46.262Z,40.4
2023-02-17T21:43:47.930Z,40.3
2023-02-17T21:58:54.306Z,40.1
2023-02-17T22:13:56.361Z,40.5
2023-02-17T22:28:57.012Z,39.9
2023-02-17T22:43:58.881Z,40.1
2023-02-17T22:59:11.258Z,39.9
2023-02-17T22:59:17.342Z,40.4
2023-02-17T23:14:19.093Z,39.9
2023-02-17T23:29:20.876Z,40.3
2023-02-17T23:44:21.366Z,39.7
